sensor_id;sensor_type;location;lat;lon;timestamp;P1;durP1;ratioP1;P2;durP2;ratioP2
51602;SDS011;37954;51.980;5.850;2023-07-09T00:00:45;10.23;;;6.88;;
51602;SDS011;37954;51.980;5.850;2023-07-09T00:04:58;11.10;;;8.02;;
51602;SDS011;37954;51.980;5.850;2023-07-09T00:09:17;8.23;;;5.88;;
51602;SDS011;37954;51.980;5.850;2023-07-09T00:13:31;8.30;;;6.25;;
51602;SDS011;37954;51.980;5.850;2023-07-09T00:17:43;8.63;;;5.88;;
51602;SDS011;37954;51.980;5.850;2023-07-09T00:21:55;8.63;;;5.88;;
51602;SDS011;37954;51.980;5.850;2023-07-09T00:26:08;6.63;;;5.78;;
51602;SDS011;37954;51.980;5.850;2023-07-09T00:30:25;9.38;;;5.57;;
51602;SDS011;37954;51.980;5.850;2023-07-09T00:34:37;9.07;;;5.47;;
51602;SDS011;37954;51.980;5.850;2023-07-09T00:38:50;7.25;;;5.70;;
51602;SDS011;37954;51.980;5.850;2023-07-09T00:43:04;6.55;;;5.45;;
51602;SDS011;37954;51.980;5.850;2023-07-09T00:52:14;6.97;;;5.40;;
51602;SDS011;37954;51.980;5.850;2023-07-09T00:56:37;9.70;;;5.68;;
51602;SDS011;37954;51.980;5.850;2023-07-09T01:00:52;7.78;;;5.43;;
51602;SDS011;37954;51.980;5.850;2023-07-09T01:05:07;11.93;;;5.35;;
51602;SDS011;37954;51.980;5.850;2023-07-09T01:09:20;7.68;;;5.50;;
51602;SDS011;37954;51.980;5.850;2023-07-09T01:13:33;8.48;;;4.90;;
51602;SDS011;37954;51.980;5.850;2023-07-09T01:17:46;8.98;;;5.47;;
51602;SDS011;37954;51.980;5.850;2023-07-09T01:21:59;7.55;;;5.65;;
51602;SDS011;37954;51.980;5.850;2023-07-09T01:26:12;11.15;;;5.40;;
51602;SDS011;37954;51.980;5.850;2023-07-09T01:30:35;6.22;;;5.03;;
51602;SDS011;37954;51.980;5.850;2023-07-09T01:34:49;8.32;;;5.70;;
51602;SDS011;37954;51.980;5.850;2023-07-09T01:39:04;7.15;;;5.53;;
51602;SDS011;37954;51.980;5.850;2023-07-09T01:43:16;7.75;;;4.97;;
51602;SDS011;37954;51.980;5.850;2023-07-09T01:47:28;6.25;;;5.20;;
51602;SDS011;37954;51.980;5.850;2023-07-09T01:51:39;7.13;;;5.00;;
51602;SDS011;37954;51.980;5.850;2023-07-09T01:55:51;6.95;;;5.57;;
51602;SDS011;37954;51.980;5.850;2023-07-09T02:00:07;7.55;;;5.10;;
51602;SDS011;37954;51.980;5.850;2023-07-09T02:04:26;6.10;;;4.60;;
51602;SDS011;37954;51.980;5.850;2023-07-09T02:08:39;10.40;;;4.90;;
51602;SDS011;37954;51.980;5.850;2023-07-09T02:12:51;7.80;;;5.35;;
51602;SDS011;37954;51.980;5.850;2023-07-09T02:17:03;6.55;;;4.70;;
51602;SDS011;37954;51.980;5.850;2023-07-09T02:21:15;5.57;;;5.05;;
51602;SDS011;37954;51.980;5.850;2023-07-09T02:25:27;7.32;;;5.20;;
51602;SDS011;37954;51.980;5.850;2023-07-09T02:29:38;6.75;;;4.82;;
51602;SDS011;37954;51.980;5.850;2023-07-09T02:33:50;7.50;;;5.28;;
51602;SDS011;37954;51.980;5.850;2023-07-09T02:38:02;7.78;;;5.07;;
51602;SDS011;37954;51.980;5.850;2023-07-09T02:42:15;7.78;;;4.88;;
51602;SDS011;37954;51.980;5.850;2023-07-09T02:46:29;6.85;;;4.90;;
51602;SDS011;37954;51.980;5.850;2023-07-09T02:50:41;5.95;;;5.18;;
51602;SDS011;37954;51.980;5.850;2023-07-09T02:54:53;5.88;;;4.88;;
51602;SDS011;37954;51.980;5.850;2023-07-09T02:59:04;7.43;;;5.03;;
51602;SDS011;37954;51.980;5.850;2023-07-09T03:03:16;8.23;;;5.53;;
51602;SDS011;37954;51.980;5.850;2023-07-09T03:07:28;7.35;;;5.28;;
51602;SDS011;37954;51.980;5.850;2023-07-09T03:11:40;7.25;;;4.90;;
51602;SDS011;37954;51.980;5.850;2023-07-09T03:15:58;6.47;;;4.90;;
51602;SDS011;37954;51.980;5.850;2023-07-09T03:20:10;8.38;;;5.15;;
51602;SDS011;37954;51.980;5.850;2023-07-09T03:24:22;7.05;;;5.20;;
51602;SDS011;37954;51.980;5.850;2023-07-09T03:28:34;7.03;;;5.20;;
51602;SDS011;37954;51.980;5.850;2023-07-09T03:32:46;6.75;;;5.38;;
51602;SDS011;37954;51.980;5.850;2023-07-09T03:36:57;7.55;;;5.43;;
51602;SDS011;37954;51.980;5.850;2023-07-09T03:41:09;6.10;;;5.05;;
51602;SDS011;37954;51.980;5.850;2023-07-09T03:45:21;7.40;;;6.10;;
51602;SDS011;37954;51.980;5.850;2023-07-09T03:49:33;8.15;;;5.85;;
51602;SDS011;37954;51.980;5.850;2023-07-09T03:53:44;8.07;;;5.68;;
51602;SDS011;37954;51.980;5.850;2023-07-09T03:57:56;6.65;;;5.07;;
51602;SDS011;37954;51.980;5.850;2023-07-09T04:02:08;8.75;;;6.35;;
51602;SDS011;37954;51.980;5.850;2023-07-09T04:06:20;10.55;;;5.30;;
51602;SDS011;37954;51.980;5.850;2023-07-09T04:10:32;6.40;;;5.80;;
51602;SDS011;37954;51.980;5.850;2023-07-09T04:14:44;10.18;;;6.57;;
51602;SDS011;37954;51.980;5.850;2023-07-09T04:18:55;7.85;;;6.03;;
51602;SDS011;37954;51.980;5.850;2023-07-09T04:23:14;11.05;;;6.13;;
51602;SDS011;37954;51.980;5.850;2023-07-09T04:27:26;7.18;;;6.30;;
51602;SDS011;37954;51.980;5.850;2023-07-09T04:31:39;9.27;;;6.05;;
51602;SDS011;37954;51.980;5.850;2023-07-09T04:35:52;9.77;;;7.32;;
51602;SDS011;37954;51.980;5.850;2023-07-09T04:40:04;11.40;;;6.65;;
51602;SDS011;37954;51.980;5.850;2023-07-09T04:44:18;8.27;;;6.07;;
51602;SDS011;37954;51.980;5.850;2023-07-09T04:48:30;10.25;;;6.95;;
51602;SDS011;37954;51.980;5.850;2023-07-09T04:52:41;8.00;;;6.35;;
51602;SDS011;37954;51.980;5.850;2023-07-09T04:56:53;10.13;;;6.07;;
51602;SDS011;37954;51.980;5.850;2023-07-09T05:01:05;10.27;;;6.72;;
51602;SDS011;37954;51.980;5.850;2023-07-09T05:05:17;8.93;;;6.63;;
51602;SDS011;37954;51.980;5.850;2023-07-09T05:09:28;7.65;;;6.47;;
51602;SDS011;37954;51.980;5.850;2023-07-09T05:13:40;8.75;;;6.28;;
51602;SDS011;37954;51.980;5.850;2023-07-09T05:17:52;6.97;;;5.93;;
51602;SDS011;37954;51.980;5.850;2023-07-09T05:22:04;8.98;;;7.00;;
51602;SDS011;37954;51.980;5.850;2023-07-09T05:26:16;8.65;;;6.80;;
51602;SDS011;37954;51.980;5.850;2023-07-09T05:30:27;11.40;;;7.93;;
51602;SDS011;37954;51.980;5.850;2023-07-09T05:34:39;11.45;;;7.85;;
51602;SDS011;37954;51.980;5.850;2023-07-09T05:38:51;11.98;;;8.55;;
51602;SDS011;37954;51.980;5.850;2023-07-09T05:43:03;9.65;;;7.95;;
51602;SDS011;37954;51.980;5.850;2023-07-09T05:47:15;13.43;;;8.70;;
51602;SDS011;37954;51.980;5.850;2023-07-09T05:51:27;10.18;;;8.57;;
51602;SDS011;37954;51.980;5.850;2023-07-09T05:55:39;10.00;;;8.10;;
51602;SDS011;37954;51.980;5.850;2023-07-09T05:59:50;9.63;;;8.45;;
51602;SDS011;37954;51.980;5.850;2023-07-09T06:04:02;12.93;;;8.57;;
51602;SDS011;37954;51.980;5.850;2023-07-09T06:08:15;13.25;;;8.43;;
51602;SDS011;37954;51.980;5.850;2023-07-09T06:12:27;12.02;;;7.93;;
51602;SDS011;37954;51.980;5.850;2023-07-09T06:16:39;10.32;;;8.10;;
51602;SDS011;37954;51.980;5.850;2023-07-09T06:20:51;11.63;;;8.52;;
51602;SDS011;37954;51.980;5.850;2023-07-09T06:25:05;9.95;;;8.48;;
51602;SDS011;37954;51.980;5.850;2023-07-09T06:29:17;11.65;;;8.05;;
51602;SDS011;37954;51.980;5.850;2023-07-09T06:33:29;11.63;;;8.18;;
51602;SDS011;37954;51.980;5.850;2023-07-09T06:37:40;9.77;;;8.50;;
51602;SDS011;37954;51.980;5.850;2023-07-09T06:41:52;9.43;;;8.32;;
51602;SDS011;37954;51.980;5.850;2023-07-09T06:46:26;12.05;;;7.93;;
51602;SDS011;37954;51.980;5.850;2023-07-09T06:50:38;9.48;;;7.35;;
51602;SDS011;37954;51.980;5.850;2023-07-09T06:54:50;13.65;;;8.30;;
51602;SDS011;37954;51.980;5.850;2023-07-09T06:59:02;10.32;;;7.82;;
51602;SDS011;37954;51.980;5.850;2023-07-09T07:03:13;9.63;;;7.82;;
51602;SDS011;37954;51.980;5.850;2023-07-09T07:07:25;15.85;;;7.90;;
51602;SDS011;37954;51.980;5.850;2023-07-09T07:11:37;12.30;;;7.78;;
51602;SDS011;37954;51.980;5.850;2023-07-09T07:15:48;15.82;;;7.93;;
51602;SDS011;37954;51.980;5.850;2023-07-09T07:20:03;15.18;;;7.30;;
51602;SDS011;37954;51.980;5.850;2023-07-09T07:24:15;10.45;;;6.95;;
51602;SDS011;37954;51.980;5.850;2023-07-09T07:28:27;7.78;;;6.55;;
51602;SDS011;37954;51.980;5.850;2023-07-09T07:32:43;9.00;;;6.75;;
51602;SDS011;37954;51.980;5.850;2023-07-09T07:36:57;10.07;;;7.32;;
51602;SDS011;37954;51.980;5.850;2023-07-09T07:41:08;8.77;;;6.90;;
51602;SDS011;37954;51.980;5.850;2023-07-09T07:45:20;9.75;;;6.43;;
51602;SDS011;37954;51.980;5.850;2023-07-09T07:49:32;9.85;;;6.55;;
51602;SDS011;37954;51.980;5.850;2023-07-09T07:53:44;10.93;;;6.40;;
51602;SDS011;37954;51.980;5.850;2023-07-09T07:57:56;10.27;;;6.40;;
51602;SDS011;37954;51.980;5.850;2023-07-09T08:02:11;8.45;;;6.55;;
51602;SDS011;37954;51.980;5.850;2023-07-09T08:06:24;9.27;;;6.13;;
51602;SDS011;37954;51.980;5.850;2023-07-09T08:10:35;9.32;;;5.57;;
51602;SDS011;37954;51.980;5.850;2023-07-09T08:14:47;7.55;;;5.97;;
51602;SDS011;37954;51.980;5.850;2023-07-09T08:18:59;8.38;;;5.88;;
51602;SDS011;37954;51.980;5.850;2023-07-09T08:23:11;8.98;;;6.10;;
51602;SDS011;37954;51.980;5.850;2023-07-09T08:27:22;11.43;;;6.32;;
51602;SDS011;37954;51.980;5.850;2023-07-09T08:31:34;9.13;;;6.00;;
51602;SDS011;37954;51.980;5.850;2023-07-09T08:35:48;6.85;;;5.88;;
51602;SDS011;37954;51.980;5.850;2023-07-09T08:40:00;9.10;;;5.82;;
51602;SDS011;37954;51.980;5.850;2023-07-09T08:48:44;8.30;;;6.40;;
51602;SDS011;37954;51.980;5.850;2023-07-09T08:52:58;7.72;;;5.82;;
51602;SDS011;37954;51.980;5.850;2023-07-09T08:57:33;8.35;;;5.35;;
51602;SDS011;37954;51.980;5.850;2023-07-09T09:02:14;7.15;;;5.65;;
51602;SDS011;37954;51.980;5.850;2023-07-09T09:06:39;7.47;;;5.07;;
51602;SDS011;37954;51.980;5.850;2023-07-09T09:10:57;12.38;;;5.32;;
51602;SDS011;37954;51.980;5.850;2023-07-09T09:15:17;9.63;;;5.60;;
51602;SDS011;37954;51.980;5.850;2023-07-09T09:19:33;6.43;;;5.47;;
51602;SDS011;37954;51.980;5.850;2023-07-09T09:23:56;5.65;;;5.10;;
51602;SDS011;37954;51.980;5.850;2023-07-09T09:28:10;11.23;;;5.97;;
51602;SDS011;37954;51.980;5.850;2023-07-09T09:32:30;9.68;;;5.45;;
51602;SDS011;37954;51.980;5.850;2023-07-09T09:36:47;18.02;;;5.47;;
51602;SDS011;37954;51.980;5.850;2023-07-09T09:41:00;6.60;;;5.38;;
51602;SDS011;37954;51.980;5.850;2023-07-09T09:45:15;6.07;;;5.20;;
51602;SDS011;37954;51.980;5.850;2023-07-09T09:49:29;6.97;;;4.78;;
51602;SDS011;37954;51.980;5.850;2023-07-09T09:53:41;6.43;;;5.82;;
51602;SDS011;37954;51.980;5.850;2023-07-09T09:57:59;5.65;;;5.15;;
51602;SDS011;37954;51.980;5.850;2023-07-09T10:02:21;7.65;;;5.20;;
51602;SDS011;37954;51.980;5.850;2023-07-09T10:06:39;8.00;;;5.28;;
51602;SDS011;37954;51.980;5.850;2023-07-09T10:10:53;6.15;;;4.63;;
51602;SDS011;37954;51.980;5.850;2023-07-09T10:28:52;7.75;;;4.68;;
51602;SDS011;37954;51.980;5.850;2023-07-09T10:33:12;7.97;;;5.07;;
51602;SDS011;37954;51.980;5.850;2023-07-09T10:41:55;4.97;;;4.47;;
51602;SDS011;37954;51.980;5.850;2023-07-09T10:46:13;4.55;;;4.15;;
51602;SDS011;37954;51.980;5.850;2023-07-09T10:50:33;4.85;;;4.35;;
51602;SDS011;37954;51.980;5.850;2023-07-09T10:54:56;4.93;;;4.47;;
51602;SDS011;37954;51.980;5.850;2023-07-09T10:59:29;7.82;;;5.07;;
51602;SDS011;37954;51.980;5.850;2023-07-09T11:03:44;5.90;;;5.03;;
51602;SDS011;37954;51.980;5.850;2023-07-09T11:08:03;6.10;;;5.20;;
51602;SDS011;37954;51.980;5.850;2023-07-09T11:12:19;5.70;;;5.00;;
51602;SDS011;37954;51.980;5.850;2023-07-09T11:16:36;9.88;;;5.30;;
51602;SDS011;37954;51.980;5.850;2023-07-09T11:21:39;4.70;;;4.28;;
51602;SDS011;37954;51.980;5.850;2023-07-09T11:25:28;6.22;;;4.65;;
51602;SDS011;37954;51.980;5.850;2023-07-09T11:29:47;7.43;;;4.88;;
51602;SDS011;37954;51.980;5.850;2023-07-09T11:38:19;9.48;;;5.13;;
51602;SDS011;37954;51.980;5.850;2023-07-09T11:42:49;6.03;;;4.38;;
51602;SDS011;37954;51.980;5.850;2023-07-09T11:51:46;4.97;;;4.47;;
51602;SDS011;37954;51.980;5.850;2023-07-09T11:56:04;5.88;;;4.25;;
51602;SDS011;37954;51.980;5.850;2023-07-09T12:00:15;6.32;;;4.47;;
51602;SDS011;37954;51.980;5.850;2023-07-09T12:04:30;8.82;;;4.78;;
51602;SDS011;37954;51.980;5.850;2023-07-09T12:08:46;6.95;;;4.63;;
51602;SDS011;37954;51.980;5.850;2023-07-09T12:12:59;6.25;;;5.07;;
51602;SDS011;37954;51.980;5.850;2023-07-09T12:17:11;7.47;;;5.30;;
51602;SDS011;37954;51.980;5.850;2023-07-09T12:21:23;9.35;;;4.55;;
51602;SDS011;37954;51.980;5.850;2023-07-09T12:25:36;7.68;;;4.63;;
51602;SDS011;37954;51.980;5.850;2023-07-09T12:29:48;10.35;;;4.20;;
51602;SDS011;37954;51.980;5.850;2023-07-09T12:34:02;6.28;;;4.60;;
51602;SDS011;37954;51.980;5.850;2023-07-09T12:38:18;6.15;;;4.43;;
51602;SDS011;37954;51.980;5.850;2023-07-09T12:42:33;6.72;;;4.43;;
51602;SDS011;37954;51.980;5.850;2023-07-09T12:46:49;6.97;;;4.30;;
51602;SDS011;37954;51.980;5.850;2023-07-09T12:51:06;6.53;;;4.65;;
51602;SDS011;37954;51.980;5.850;2023-07-09T12:55:23;6.53;;;4.70;;
51602;SDS011;37954;51.980;5.850;2023-07-09T12:59:38;8.80;;;4.68;;
51602;SDS011;37954;51.980;5.850;2023-07-09T13:03:55;6.70;;;4.18;;
51602;SDS011;37954;51.980;5.850;2023-07-09T13:08:11;6.95;;;4.20;;
51602;SDS011;37954;51.980;5.850;2023-07-09T13:12:32;5.18;;;3.65;;
51602;SDS011;37954;51.980;5.850;2023-07-09T13:16:44;6.53;;;4.75;;
51602;SDS011;37954;51.980;5.850;2023-07-09T13:20:57;6.35;;;4.72;;
51602;SDS011;37954;51.980;5.850;2023-07-09T13:25:11;7.60;;;5.07;;
51602;SDS011;37954;51.980;5.850;2023-07-09T13:29:25;5.07;;;4.57;;
51602;SDS011;37954;51.980;5.850;2023-07-09T13:33:38;6.85;;;4.93;;
51602;SDS011;37954;51.980;5.850;2023-07-09T13:37:50;11.70;;;4.68;;
51602;SDS011;37954;51.980;5.850;2023-07-09T13:42:02;8.38;;;4.93;;
51602;SDS011;37954;51.980;5.850;2023-07-09T13:46:15;6.88;;;4.97;;
51602;SDS011;37954;51.980;5.850;2023-07-09T13:50:26;5.75;;;4.65;;
51602;SDS011;37954;51.980;5.850;2023-07-09T13:54:38;5.50;;;4.50;;
51602;SDS011;37954;51.980;5.850;2023-07-09T13:58:50;5.85;;;4.85;;
51602;SDS011;37954;51.980;5.850;2023-07-09T14:03:02;9.20;;;4.82;;
51602;SDS011;37954;51.980;5.850;2023-07-09T14:07:25;9.05;;;5.50;;
51602;SDS011;37954;51.980;5.850;2023-07-09T14:11:41;9.27;;;6.15;;
51602;SDS011;37954;51.980;5.850;2023-07-09T14:15:56;6.80;;;5.38;;
51602;SDS011;37954;51.980;5.850;2023-07-09T14:20:10;5.55;;;5.05;;
51602;SDS011;37954;51.980;5.850;2023-07-09T14:28:38;7.75;;;5.78;;
51602;SDS011;37954;51.980;5.850;2023-07-09T14:32:50;8.95;;;5.90;;
51602;SDS011;37954;51.980;5.850;2023-07-09T14:37:03;5.90;;;5.30;;
51602;SDS011;37954;51.980;5.850;2023-07-09T14:41:21;12.00;;;5.53;;
51602;SDS011;37954;51.980;5.850;2023-07-09T14:45:35;8.13;;;5.13;;
51602;SDS011;37954;51.980;5.850;2023-07-09T14:49:49;7.93;;;5.43;;
51602;SDS011;37954;51.980;5.850;2023-07-09T14:54:02;9.25;;;5.60;;
51602;SDS011;37954;51.980;5.850;2023-07-09T14:58:14;4.93;;;3.70;;
51602;SDS011;37954;51.980;5.850;2023-07-09T15:02:35;3.47;;;3.00;;
51602;SDS011;37954;51.980;5.850;2023-07-09T15:06:49;2.90;;;2.60;;
51602;SDS011;37954;51.980;5.850;2023-07-09T15:11:01;3.47;;;2.90;;
51602;SDS011;37954;51.980;5.850;2023-07-09T15:15:20;7.68;;;3.03;;
51602;SDS011;37954;51.980;5.850;2023-07-09T15:19:37;3.83;;;3.10;;
51602;SDS011;37954;51.980;5.850;2023-07-09T15:23:49;4.85;;;3.50;;
51602;SDS011;37954;51.980;5.850;2023-07-09T15:28:01;4.28;;;3.35;;
51602;SDS011;37954;51.980;5.850;2023-07-09T15:32:13;5.20;;;3.38;;
51602;SDS011;37954;51.980;5.850;2023-07-09T15:36:25;6.85;;;3.47;;
51602;SDS011;37954;51.980;5.850;2023-07-09T15:40:37;5.18;;;3.40;;
51602;SDS011;37954;51.980;5.850;2023-07-09T15:44:48;5.63;;;3.20;;
51602;SDS011;37954;51.980;5.850;2023-07-09T15:49:00;4.65;;;3.42;;
51602;SDS011;37954;51.980;5.850;2023-07-09T15:53:12;5.25;;;3.13;;
51602;SDS011;37954;51.980;5.850;2023-07-09T15:57:25;6.78;;;3.65;;
51602;SDS011;37954;51.980;5.850;2023-07-09T16:01:53;9.77;;;3.78;;
51602;SDS011;37954;51.980;5.850;2023-07-09T16:06:04;3.15;;;2.65;;
51602;SDS011;37954;51.980;5.850;2023-07-09T16:10:16;5.13;;;3.13;;
51602;SDS011;37954;51.980;5.850;2023-07-09T16:14:30;6.32;;;3.28;;
51602;SDS011;37954;51.980;5.850;2023-07-09T16:18:43;7.32;;;3.30;;
51602;SDS011;37954;51.980;5.850;2023-07-09T16:22:56;8.07;;;3.65;;
51602;SDS011;37954;51.980;5.850;2023-07-09T16:27:09;7.15;;;3.60;;
51602;SDS011;37954;51.980;5.850;2023-07-09T16:31:25;8.45;;;3.63;;
51602;SDS011;37954;51.980;5.850;2023-07-09T16:35:37;5.05;;;2.92;;
51602;SDS011;37954;51.980;5.850;2023-07-09T16:39:49;6.65;;;2.90;;
51602;SDS011;37954;51.980;5.850;2023-07-09T16:44:01;5.65;;;3.10;;
51602;SDS011;37954;51.980;5.850;2023-07-09T16:48:19;2.80;;;2.50;;
51602;SDS011;37954;51.980;5.850;2023-07-09T16:52:33;5.72;;;2.60;;
51602;SDS011;37954;51.980;5.850;2023-07-09T16:56:44;3.13;;;2.53;;
51602;SDS011;37954;51.980;5.850;2023-07-09T17:00:56;5.00;;;2.50;;
51602;SDS011;37954;51.980;5.850;2023-07-09T17:05:09;6.25;;;2.78;;
51602;SDS011;37954;51.980;5.850;2023-07-09T17:09:20;3.47;;;2.40;;
51602;SDS011;37954;51.980;5.850;2023-07-09T17:13:32;3.83;;;2.10;;
51602;SDS011;37954;51.980;5.850;2023-07-09T17:17:44;4.10;;;2.40;;
51602;SDS011;37954;51.980;5.850;2023-07-09T17:21:56;2.30;;;2.10;;
51602;SDS011;37954;51.980;5.850;2023-07-09T17:26:10;2.45;;;2.13;;
51602;SDS011;37954;51.980;5.850;2023-07-09T17:30:22;3.78;;;2.40;;
51602;SDS011;37954;51.980;5.850;2023-07-09T17:34:34;2.25;;;2.05;;
51602;SDS011;37954;51.980;5.850;2023-07-09T17:38:48;3.25;;;1.85;;
51602;SDS011;37954;51.980;5.850;2023-07-09T17:43:00;2.55;;;1.90;;
51602;SDS011;37954;51.980;5.850;2023-07-09T17:47:14;2.53;;;2.10;;
51602;SDS011;37954;51.980;5.850;2023-07-09T17:51:27;2.72;;;1.98;;
51602;SDS011;37954;51.980;5.850;2023-07-09T17:55:38;3.58;;;2.10;;
51602;SDS011;37954;51.980;5.850;2023-07-09T17:59:50;2.35;;;1.83;;
51602;SDS011;37954;51.980;5.850;2023-07-09T18:04:04;3.20;;;2.22;;
51602;SDS011;37954;51.980;5.850;2023-07-09T18:08:40;2.17;;;1.80;;
51602;SDS011;37954;51.980;5.850;2023-07-09T18:12:52;3.00;;;2.08;;
51602;SDS011;37954;51.980;5.850;2023-07-09T18:17:17;3.22;;;1.73;;
51602;SDS011;37954;51.980;5.850;2023-07-09T18:21:34;2.53;;;1.83;;
51602;SDS011;37954;51.980;5.850;2023-07-09T18:25:46;6.05;;;1.88;;
51602;SDS011;37954;51.980;5.850;2023-07-09T18:29:58;2.75;;;2.10;;
51602;SDS011;37954;51.980;5.850;2023-07-09T18:34:09;2.38;;;2.05;;
51602;SDS011;37954;51.980;5.850;2023-07-09T18:38:21;6.00;;;2.05;;
51602;SDS011;37954;51.980;5.850;2023-07-09T18:42:33;2.03;;;1.92;;
51602;SDS011;37954;51.980;5.850;2023-07-09T18:46:45;3.67;;;2.42;;
51602;SDS011;37954;51.980;5.850;2023-07-09T18:50:58;2.40;;;1.92;;
51602;SDS011;37954;51.980;5.850;2023-07-09T18:55:17;3.13;;;1.90;;
51602;SDS011;37954;51.980;5.850;2023-07-09T18:59:31;2.75;;;2.30;;
51602;SDS011;37954;51.980;5.850;2023-07-09T19:03:45;3.22;;;2.35;;
51602;SDS011;37954;51.980;5.850;2023-07-09T19:07:57;3.67;;;2.40;;
51602;SDS011;37954;51.980;5.850;2023-07-09T19:12:10;5.28;;;2.85;;
51602;SDS011;37954;51.980;5.850;2023-07-09T19:16:23;3.13;;;2.38;;
51602;SDS011;37954;51.980;5.850;2023-07-09T19:20:39;4.15;;;2.90;;
51602;SDS011;37954;51.980;5.850;2023-07-09T19:24:51;3.47;;;3.05;;
51602;SDS011;37954;51.980;5.850;2023-07-09T19:29:03;3.90;;;3.22;;
51602;SDS011;37954;51.980;5.850;2023-07-09T19:33:20;3.10;;;2.80;;
51602;SDS011;37954;51.980;5.850;2023-07-09T19:37:35;5.70;;;3.78;;
51602;SDS011;37954;51.980;5.850;2023-07-09T19:41:49;6.32;;;4.22;;
51602;SDS011;37954;51.980;5.850;2023-07-09T19:46:00;5.28;;;3.90;;
51602;SDS011;37954;51.980;5.850;2023-07-09T19:50:20;8.55;;;4.95;;
51602;SDS011;37954;51.980;5.850;2023-07-09T19:54:32;6.13;;;5.13;;
51602;SDS011;37954;51.980;5.850;2023-07-09T19:58:44;6.05;;;5.30;;
51602;SDS011;37954;51.980;5.850;2023-07-09T20:02:56;6.47;;;5.10;;
51602;SDS011;37954;51.980;5.850;2023-07-09T20:07:08;5.43;;;4.57;;
51602;SDS011;37954;51.980;5.850;2023-07-09T20:11:21;7.15;;;5.53;;
51602;SDS011;37954;51.980;5.850;2023-07-09T20:15:33;7.90;;;5.15;;
51602;SDS011;37954;51.980;5.850;2023-07-09T20:19:45;5.43;;;4.88;;
51602;SDS011;37954;51.980;5.850;2023-07-09T20:23:57;5.65;;;4.82;;
51602;SDS011;37954;51.980;5.850;2023-07-09T20:28:17;7.13;;;5.40;;
51602;SDS011;37954;51.980;5.850;2023-07-09T20:32:37;8.25;;;5.43;;
51602;SDS011;37954;51.980;5.850;2023-07-09T20:36:50;7.32;;;5.72;;
51602;SDS011;37954;51.980;5.850;2023-07-09T20:41:02;6.30;;;5.35;;
51602;SDS011;37954;51.980;5.850;2023-07-09T20:45:16;6.75;;;5.35;;
51602;SDS011;37954;51.980;5.850;2023-07-09T20:49:34;8.65;;;5.43;;
51602;SDS011;37954;51.980;5.850;2023-07-09T20:53:47;8.15;;;5.82;;
51602;SDS011;37954;51.980;5.850;2023-07-09T20:57:59;8.10;;;6.20;;
51602;SDS011;37954;51.980;5.850;2023-07-09T21:02:18;7.72;;;6.03;;
51602;SDS011;37954;51.980;5.850;2023-07-09T21:06:32;8.07;;;6.78;;
51602;SDS011;37954;51.980;5.850;2023-07-09T21:10:44;9.70;;;6.43;;
51602;SDS011;37954;51.980;5.850;2023-07-09T21:14:57;11.20;;;7.40;;
51602;SDS011;37954;51.980;5.850;2023-07-09T21:19:15;9.40;;;6.72;;
51602;SDS011;37954;51.980;5.850;2023-07-09T21:23:29;9.63;;;7.20;;
51602;SDS011;37954;51.980;5.850;2023-07-09T21:27:40;9.65;;;6.40;;
51602;SDS011;37954;51.980;5.850;2023-07-09T21:31:53;7.60;;;5.95;;
51602;SDS011;37954;51.980;5.850;2023-07-09T21:36:06;7.43;;;5.97;;
51602;SDS011;37954;51.980;5.850;2023-07-09T21:40:29;9.25;;;6.85;;
51602;SDS011;37954;51.980;5.850;2023-07-09T21:44:42;13.45;;;7.10;;
51602;SDS011;37954;51.980;5.850;2023-07-09T21:48:54;8.18;;;6.05;;
51602;SDS011;37954;51.980;5.850;2023-07-09T21:53:13;11.55;;;6.85;;
51602;SDS011;37954;51.980;5.850;2023-07-09T21:57:26;9.82;;;6.28;;
51602;SDS011;37954;51.980;5.850;2023-07-09T22:01:38;10.88;;;6.45;;
51602;SDS011;37954;51.980;5.850;2023-07-09T22:05:53;12.30;;;6.55;;
51602;SDS011;37954;51.980;5.850;2023-07-09T22:10:05;8.90;;;6.50;;
51602;SDS011;37954;51.980;5.850;2023-07-09T22:14:18;10.57;;;7.18;;
51602;SDS011;37954;51.980;5.850;2023-07-09T22:18:31;13.23;;;7.15;;
51602;SDS011;37954;51.980;5.850;2023-07-09T22:22:45;7.30;;;6.38;;
51602;SDS011;37954;51.980;5.850;2023-07-09T22:26:57;7.55;;;6.80;;
51602;SDS011;37954;51.980;5.850;2023-07-09T22:31:09;11.60;;;8.15;;
51602;SDS011;37954;51.980;5.850;2023-07-09T22:35:25;9.15;;;6.88;;
51602;SDS011;37954;51.980;5.850;2023-07-09T22:39:41;11.05;;;8.07;;
51602;SDS011;37954;51.980;5.850;2023-07-09T22:43:53;15.15;;;8.23;;
51602;SDS011;37954;51.980;5.850;2023-07-09T22:48:05;10.10;;;7.88;;
51602;SDS011;37954;51.980;5.850;2023-07-09T22:52:17;11.90;;;7.80;;
51602;SDS011;37954;51.980;5.850;2023-07-09T22:56:29;12.88;;;7.90;;
51602;SDS011;37954;51.980;5.850;2023-07-09T23:00:53;10.18;;;7.50;;
51602;SDS011;37954;51.980;5.850;2023-07-09T23:05:13;10.13;;;8.52;;
51602;SDS011;37954;51.980;5.850;2023-07-09T23:09:26;12.80;;;8.13;;
51602;SDS011;37954;51.980;5.850;2023-07-09T23:13:37;9.93;;;7.95;;
51602;SDS011;37954;51.980;5.850;2023-07-09T23:17:50;12.18;;;8.73;;
51602;SDS011;37954;51.980;5.850;2023-07-09T23:22:05;12.80;;;8.98;;
51602;SDS011;37954;51.980;5.850;2023-07-09T23:26:17;14.02;;;9.15;;
51602;SDS011;37954;51.980;5.850;2023-07-09T23:30:31;11.23;;;8.77;;
51602;SDS011;37954;51.980;5.850;2023-07-09T23:34:45;13.35;;;8.52;;
51602;SDS011;37954;51.980;5.850;2023-07-09T23:38:56;10.13;;;8.75;;
51602;SDS011;37954;51.980;5.850;2023-07-09T23:43:10;10.13;;;8.50;;
51602;SDS011;37954;51.980;5.850;2023-07-09T23:47:25;16.42;;;8.25;;
51602;SDS011;37954;51.980;5.850;2023-07-09T23:51:37;10.23;;;8.27;;
51602;SDS011;37954;51.980;5.850;2023-07-09T23:55:49;11.18;;;7.82;;
